sensor_id;sensor_type;location;lat;lon;timestamp;P1;durP1;ratioP1;P2;durP2;ratioP2
18188;SDS011;9219;50.396;8.546;2023-08-06T00:01:10;13.33;;;10.13;;
18188;SDS011;9219;50.396;8.546;2023-08-06T00:03:38;14.83;;;10.07;;
18188;SDS011;9219;50.396;8.546;2023-08-06T00:06:05;13.37;;;10.30;;
18188;SDS011;9219;50.396;8.546;2023-08-06T00:08:33;14.37;;;9.53;;
18188;SDS011;9219;50.396;8.546;2023-08-06T00:11:01;19.27;;;10.93;;
18188;SDS011;9219;50.396;8.546;2023-08-06T00:13:28;11.77;;;9.33;;
18188;SDS011;9219;50.396;8.546;2023-08-06T00:15:55;14.70;;;11.20;;
18188;SDS011;9219;50.396;8.546;2023-08-06T00:23:27;13.27;;;9.50;;
18188;SDS011;9219;50.396;8.546;2023-08-06T00:25:54;12.93;;;8.93;;
18188;SDS011;9219;50.396;8.546;2023-08-06T00:28:21;12.20;;;9.17;;
18188;SDS011;9219;50.396;8.546;2023-08-06T00:30:52;13.73;;;9.50;;
18188;SDS011;9219;50.396;8.546;2023-08-06T00:33:23;13.27;;;8.70;;
18188;SDS011;9219;50.396;8.546;2023-08-06T00:35:51;13.00;;;8.53;;
18188;SDS011;9219;50.396;8.546;2023-08-06T00:38:18;9.87;;;8.50;;
18188;SDS011;9219;50.396;8.546;2023-08-06T00:45:42;8.73;;;6.70;;
18188;SDS011;9219;50.396;8.546;2023-08-06T00:48:10;11.27;;;7.57;;
18188;SDS011;9219;50.396;8.546;2023-08-06T00:50:39;12.37;;;7.60;;
18188;SDS011;9219;50.396;8.546;2023-08-06T00:53:06;11.33;;;6.63;;
18188;SDS011;9219;50.396;8.546;2023-08-06T00:55:35;8.60;;;6.87;;
18188;SDS011;9219;50.396;8.546;2023-08-06T00:58:02;9.30;;;6.50;;
18188;SDS011;9219;50.396;8.546;2023-08-06T01:00:31;19.13;;;6.87;;
18188;SDS011;9219;50.396;8.546;2023-08-06T01:02:59;9.73;;;7.10;;
18188;SDS011;9219;50.396;8.546;2023-08-06T01:10:34;12.57;;;6.63;;
18188;SDS011;9219;50.396;8.546;2023-08-06T01:13:13;12.80;;;7.77;;
18188;SDS011;9219;50.396;8.546;2023-08-06T01:15:48;12.40;;;7.20;;
18188;SDS011;9219;50.396;8.546;2023-08-06T01:18:19;7.97;;;6.77;;
18188;SDS011;9219;50.396;8.546;2023-08-06T01:20:46;9.53;;;7.20;;
18188;SDS011;9219;50.396;8.546;2023-08-06T01:23:15;9.03;;;7.73;;
18188;SDS011;9219;50.396;8.546;2023-08-06T01:25:43;8.73;;;7.00;;
18188;SDS011;9219;50.396;8.546;2023-08-06T01:33:24;8.53;;;7.53;;
18188;SDS011;9219;50.396;8.546;2023-08-06T01:35:57;13.30;;;9.00;;
18188;SDS011;9219;50.396;8.546;2023-08-06T01:38:25;10.80;;;8.03;;
18188;SDS011;9219;50.396;8.546;2023-08-06T01:40:54;12.63;;;9.63;;
18188;SDS011;9219;50.396;8.546;2023-08-06T01:43:21;11.50;;;8.80;;
18188;SDS011;9219;50.396;8.546;2023-08-06T01:45:47;11.77;;;8.90;;
18188;SDS011;9219;50.396;8.546;2023-08-06T01:48:14;9.23;;;7.87;;
18188;SDS011;9219;50.396;8.546;2023-08-06T01:55:48;10.07;;;8.67;;
18188;SDS011;9219;50.396;8.546;2023-08-06T01:58:15;12.03;;;8.53;;
18188;SDS011;9219;50.396;8.546;2023-08-06T02:00:42;10.27;;;8.37;;
18188;SDS011;9219;50.396;8.546;2023-08-06T02:03:09;9.70;;;7.97;;
18188;SDS011;9219;50.396;8.546;2023-08-06T02:05:36;10.47;;;8.33;;
18188;SDS011;9219;50.396;8.546;2023-08-06T02:08:04;10.60;;;7.50;;
18188;SDS011;9219;50.396;8.546;2023-08-06T02:10:34;8.93;;;7.73;;
18188;SDS011;9219;50.396;8.546;2023-08-06T02:18:05;12.57;;;8.53;;
18188;SDS011;9219;50.396;8.546;2023-08-06T02:20:33;13.60;;;7.90;;
18188;SDS011;9219;50.396;8.546;2023-08-06T02:23:00;10.53;;;8.17;;
18188;SDS011;9219;50.396;8.546;2023-08-06T02:25:27;12.33;;;8.50;;
18188;SDS011;9219;50.396;8.546;2023-08-06T02:27:54;12.90;;;8.80;;
18188;SDS011;9219;50.396;8.546;2023-08-06T02:30:21;14.77;;;9.73;;
18188;SDS011;9219;50.396;8.546;2023-08-06T02:32:48;16.30;;;9.90;;
18188;SDS011;9219;50.396;8.546;2023-08-06T02:40:22;12.50;;;11.07;;
18188;SDS011;9219;50.396;8.546;2023-08-06T02:42:49;15.57;;;9.93;;
18188;SDS011;9219;50.396;8.546;2023-08-06T02:45:17;10.40;;;9.23;;
18188;SDS011;9219;50.396;8.546;2023-08-06T02:47:43;12.40;;;9.83;;
18188;SDS011;9219;50.396;8.546;2023-08-06T02:50:11;15.77;;;10.60;;
18188;SDS011;9219;50.396;8.546;2023-08-06T02:52:38;13.77;;;10.53;;
18188;SDS011;9219;50.396;8.546;2023-08-06T02:55:06;17.53;;;11.60;;
18188;SDS011;9219;50.396;8.546;2023-08-06T03:02:37;15.57;;;11.73;;
18188;SDS011;9219;50.396;8.546;2023-08-06T03:05:06;12.10;;;9.50;;
18188;SDS011;9219;50.396;8.546;2023-08-06T03:07:33;11.70;;;9.53;;
18188;SDS011;9219;50.396;8.546;2023-08-06T03:10:02;11.60;;;9.90;;
18188;SDS011;9219;50.396;8.546;2023-08-06T03:12:29;12.87;;;10.03;;
18188;SDS011;9219;50.396;8.546;2023-08-06T03:14:57;14.03;;;9.60;;
18188;SDS011;9219;50.396;8.546;2023-08-06T03:17:24;14.67;;;11.33;;
18188;SDS011;9219;50.396;8.546;2023-08-06T03:23:05;16.70;;;11.47;;
18188;SDS011;9219;50.396;8.546;2023-08-06T03:25:34;15.63;;;11.57;;
18188;SDS011;9219;50.396;8.546;2023-08-06T03:28:02;15.20;;;11.43;;
18188;SDS011;9219;50.396;8.546;2023-08-06T03:30:29;17.10;;;10.80;;
18188;SDS011;9219;50.396;8.546;2023-08-06T03:32:56;13.43;;;10.80;;
18188;SDS011;9219;50.396;8.546;2023-08-06T03:35:23;11.73;;;9.27;;
18188;SDS011;9219;50.396;8.546;2023-08-06T03:37:50;12.47;;;10.47;;
18188;SDS011;9219;50.396;8.546;2023-08-06T03:45:21;17.03;;;10.90;;
18188;SDS011;9219;50.396;8.546;2023-08-06T03:47:49;14.90;;;11.33;;
18188;SDS011;9219;50.396;8.546;2023-08-06T03:50:16;12.73;;;9.43;;
18188;SDS011;9219;50.396;8.546;2023-08-06T03:52:43;12.33;;;9.20;;
18188;SDS011;9219;50.396;8.546;2023-08-06T03:55:10;12.13;;;10.70;;
18188;SDS011;9219;50.396;8.546;2023-08-06T03:57:37;10.50;;;8.90;;
18188;SDS011;9219;50.396;8.546;2023-08-06T04:00:05;11.80;;;9.00;;
18188;SDS011;9219;50.396;8.546;2023-08-06T04:05:12;11.87;;;9.03;;
18188;SDS011;9219;50.396;8.546;2023-08-06T04:07:40;11.93;;;8.33;;
18188;SDS011;9219;50.396;8.546;2023-08-06T04:10:07;15.03;;;8.07;;
18188;SDS011;9219;50.396;8.546;2023-08-06T04:12:35;8.83;;;7.73;;
18188;SDS011;9219;50.396;8.546;2023-08-06T04:15:05;10.47;;;7.20;;
18188;SDS011;9219;50.396;8.546;2023-08-06T04:17:33;9.40;;;7.73;;
18188;SDS011;9219;50.396;8.546;2023-08-06T04:20:00;11.50;;;8.27;;
18188;SDS011;9219;50.396;8.546;2023-08-06T04:27:34;7.93;;;6.37;;
18188;SDS011;9219;50.396;8.546;2023-08-06T04:30:03;13.03;;;6.90;;
18188;SDS011;9219;50.396;8.546;2023-08-06T04:32:35;10.53;;;7.20;;
18188;SDS011;9219;50.396;8.546;2023-08-06T04:35:02;9.20;;;6.43;;
18188;SDS011;9219;50.396;8.546;2023-08-06T04:37:30;9.13;;;7.17;;
18188;SDS011;9219;50.396;8.546;2023-08-06T04:39:57;10.30;;;6.23;;
18188;SDS011;9219;50.396;8.546;2023-08-06T04:42:24;9.67;;;7.33;;
18188;SDS011;9219;50.396;8.546;2023-08-06T04:44:52;9.30;;;6.87;;
18188;SDS011;9219;50.396;8.546;2023-08-06T04:51:11;7.83;;;6.47;;
18188;SDS011;9219;50.396;8.546;2023-08-06T04:53:39;9.43;;;7.30;;
18188;SDS011;9219;50.396;8.546;2023-08-06T04:56:07;7.33;;;6.20;;
18188;SDS011;9219;50.396;8.546;2023-08-06T04:58:34;8.93;;;6.77;;
18188;SDS011;9219;50.396;8.546;2023-08-06T05:01:04;10.37;;;6.63;;
18188;SDS011;9219;50.396;8.546;2023-08-06T05:03:31;9.87;;;7.03;;
18188;SDS011;9219;50.396;8.546;2023-08-06T05:05:58;8.40;;;6.60;;
18188;SDS011;9219;50.396;8.546;2023-08-06T05:11:09;6.77;;;5.73;;
18188;SDS011;9219;50.396;8.546;2023-08-06T05:13:36;7.50;;;6.40;;
18188;SDS011;9219;50.396;8.546;2023-08-06T05:16:03;8.67;;;6.23;;
18188;SDS011;9219;50.396;8.546;2023-08-06T05:18:30;12.50;;;8.40;;
18188;SDS011;9219;50.396;8.546;2023-08-06T05:20:57;8.70;;;6.80;;
18188;SDS011;9219;50.396;8.546;2023-08-06T05:23:25;11.30;;;6.97;;
18188;SDS011;9219;50.396;8.546;2023-08-06T05:25:52;14.00;;;6.73;;
18188;SDS011;9219;50.396;8.546;2023-08-06T05:31:04;12.53;;;6.10;;
18188;SDS011;9219;50.396;8.546;2023-08-06T05:33:32;9.47;;;6.97;;
18188;SDS011;9219;50.396;8.546;2023-08-06T05:35:59;8.90;;;5.80;;
18188;SDS011;9219;50.396;8.546;2023-08-06T05:38:26;8.80;;;5.90;;
18188;SDS011;9219;50.396;8.546;2023-08-06T05:40:53;11.00;;;6.10;;
18188;SDS011;9219;50.396;8.546;2023-08-06T05:43:20;6.83;;;5.63;;
18188;SDS011;9219;50.396;8.546;2023-08-06T05:45:49;4.63;;;4.00;;
18188;SDS011;9219;50.396;8.546;2023-08-06T05:53:21;5.23;;;3.83;;
18188;SDS011;9219;50.396;8.546;2023-08-06T05:55:49;7.03;;;4.73;;
18188;SDS011;9219;50.396;8.546;2023-08-06T05:58:26;7.27;;;5.10;;
18188;SDS011;9219;50.396;8.546;2023-08-06T06:00:55;6.00;;;4.13;;
18188;SDS011;9219;50.396;8.546;2023-08-06T06:03:22;8.37;;;4.30;;
18188;SDS011;9219;50.396;8.546;2023-08-06T06:05:49;4.40;;;3.73;;
18188;SDS011;9219;50.396;8.546;2023-08-06T06:08:16;4.37;;;3.43;;
18188;SDS011;9219;50.396;8.546;2023-08-06T06:15:45;4.10;;;1.90;;
18188;SDS011;9219;50.396;8.546;2023-08-06T06:18:14;3.00;;;1.80;;
18188;SDS011;9219;50.396;8.546;2023-08-06T06:20:41;3.20;;;1.43;;
18188;SDS011;9219;50.396;8.546;2023-08-06T06:23:10;3.47;;;1.50;;
18188;SDS011;9219;50.396;8.546;2023-08-06T06:25:41;1.10;;;1.10;;
18188;SDS011;9219;50.396;8.546;2023-08-06T06:28:08;1.53;;;0.90;;
18188;SDS011;9219;50.396;8.546;2023-08-06T06:30:35;1.67;;;0.80;;
18188;SDS011;9219;50.396;8.546;2023-08-06T06:38:07;0.70;;;0.70;;
18188;SDS011;9219;50.396;8.546;2023-08-06T06:40:35;0.83;;;0.80;;
18188;SDS011;9219;50.396;8.546;2023-08-06T06:43:02;2.70;;;0.60;;
18188;SDS011;9219;50.396;8.546;2023-08-06T06:45:30;1.17;;;0.60;;
18188;SDS011;9219;50.396;8.546;2023-08-06T06:47:58;0.60;;;0.60;;
18188;SDS011;9219;50.396;8.546;2023-08-06T06:50:26;0.87;;;0.73;;
18188;SDS011;9219;50.396;8.546;2023-08-06T06:52:54;2.20;;;0.50;;
18188;SDS011;9219;50.396;8.546;2023-08-06T07:00:27;0.67;;;0.60;;
18188;SDS011;9219;50.396;8.546;2023-08-06T07:02:55;0.53;;;0.53;;
18188;SDS011;9219;50.396;8.546;2023-08-06T07:05:24;0.50;;;0.50;;
18188;SDS011;9219;50.396;8.546;2023-08-06T07:07:52;0.40;;;0.40;;
18188;SDS011;9219;50.396;8.546;2023-08-06T07:10:19;0.73;;;0.70;;
18188;SDS011;9219;50.396;8.546;2023-08-06T07:12:47;0.30;;;0.30;;
18188;SDS011;9219;50.396;8.546;2023-08-06T07:15:14;1.00;;;0.70;;
18188;SDS011;9219;50.396;8.546;2023-08-06T07:22:48;0.50;;;0.40;;
18188;SDS011;9219;50.396;8.546;2023-08-06T07:25:16;0.50;;;0.50;;
18188;SDS011;9219;50.396;8.546;2023-08-06T07:27:43;3.50;;;0.60;;
18188;SDS011;9219;50.396;8.546;2023-08-06T07:30:10;0.63;;;0.57;;
18188;SDS011;9219;50.396;8.546;2023-08-06T07:32:39;0.40;;;0.40;;
18188;SDS011;9219;50.396;8.546;2023-08-06T07:35:06;0.30;;;0.30;;
18188;SDS011;9219;50.396;8.546;2023-08-06T07:37:38;2.93;;;0.30;;
18188;SDS011;9219;50.396;8.546;2023-08-06T07:45:11;1.30;;;0.30;;
18188;SDS011;9219;50.396;8.546;2023-08-06T07:47:39;0.20;;;0.20;;
18188;SDS011;9219;50.396;8.546;2023-08-06T07:50:06;0.23;;;0.23;;
18188;SDS011;9219;50.396;8.546;2023-08-06T07:52:34;0.20;;;0.20;;
18188;SDS011;9219;50.396;8.546;2023-08-06T07:55:02;0.10;;;0.10;;
18188;SDS011;9219;50.396;8.546;2023-08-06T07:57:30;0.27;;;0.27;;
18188;SDS011;9219;50.396;8.546;2023-08-06T08:00:00;2.37;;;0.30;;
18188;SDS011;9219;50.396;8.546;2023-08-06T08:05:07;0.77;;;0.33;;
18188;SDS011;9219;50.396;8.546;2023-08-06T08:07:34;0.30;;;0.30;;
18188;SDS011;9219;50.396;8.546;2023-08-06T08:10:02;0.20;;;0.20;;
18188;SDS011;9219;50.396;8.546;2023-08-06T08:12:31;3.90;;;0.40;;
18188;SDS011;9219;50.396;8.546;2023-08-06T08:14:58;0.33;;;0.33;;
18188;SDS011;9219;50.396;8.546;2023-08-06T08:17:27;0.47;;;0.40;;
18188;SDS011;9219;50.396;8.546;2023-08-06T08:19:54;0.40;;;0.40;;
18188;SDS011;9219;50.396;8.546;2023-08-06T08:27:27;2.10;;;0.80;;
18188;SDS011;9219;50.396;8.546;2023-08-06T08:29:59;0.90;;;0.90;;
18188;SDS011;9219;50.396;8.546;2023-08-06T08:32:27;1.93;;;0.97;;
18188;SDS011;9219;50.396;8.546;2023-08-06T08:34:55;0.60;;;0.60;;
18188;SDS011;9219;50.396;8.546;2023-08-06T08:37:23;0.83;;;0.60;;
18188;SDS011;9219;50.396;8.546;2023-08-06T08:39:52;1.73;;;0.90;;
18188;SDS011;9219;50.396;8.546;2023-08-06T08:42:21;0.60;;;0.60;;
18188;SDS011;9219;50.396;8.546;2023-08-06T08:49:55;0.60;;;0.60;;
18188;SDS011;9219;50.396;8.546;2023-08-06T08:52:24;1.47;;;0.90;;
18188;SDS011;9219;50.396;8.546;2023-08-06T08:55:01;0.60;;;0.60;;
18188;SDS011;9219;50.396;8.546;2023-08-06T08:57:32;1.37;;;0.60;;
18188;SDS011;9219;50.396;8.546;2023-08-06T09:00:04;0.53;;;0.53;;
18188;SDS011;9219;50.396;8.546;2023-08-06T09:02:33;0.50;;;0.50;;
18188;SDS011;9219;50.396;8.546;2023-08-06T09:07:50;1.10;;;0.60;;
18188;SDS011;9219;50.396;8.546;2023-08-06T09:10:21;0.57;;;0.57;;
18188;SDS011;9219;50.396;8.546;2023-08-06T09:12:52;2.10;;;0.53;;
18188;SDS011;9219;50.396;8.546;2023-08-06T09:15:24;0.60;;;0.60;;
18188;SDS011;9219;50.396;8.546;2023-08-06T09:17:51;1.00;;;0.60;;
18188;SDS011;9219;50.396;8.546;2023-08-06T09:20:19;0.50;;;0.50;;
18188;SDS011;9219;50.396;8.546;2023-08-06T09:22:47;2.23;;;0.80;;
18188;SDS011;9219;50.396;8.546;2023-08-06T09:30:29;3.50;;;0.73;;
18188;SDS011;9219;50.396;8.546;2023-08-06T09:32:57;2.17;;;0.50;;
18188;SDS011;9219;50.396;8.546;2023-08-06T09:35:27;0.70;;;0.70;;
18188;SDS011;9219;50.396;8.546;2023-08-06T09:37:55;0.73;;;0.70;;
18188;SDS011;9219;50.396;8.546;2023-08-06T09:40:26;1.23;;;0.60;;
18188;SDS011;9219;50.396;8.546;2023-08-06T09:42:57;1.17;;;0.63;;
18188;SDS011;9219;50.396;8.546;2023-08-06T09:45:33;1.57;;;1.00;;
18188;SDS011;9219;50.396;8.546;2023-08-06T09:52:34;3.37;;;0.80;;
18188;SDS011;9219;50.396;8.546;2023-08-06T09:55:03;3.00;;;0.80;;
18188;SDS011;9219;50.396;8.546;2023-08-06T09:57:37;0.90;;;0.60;;
18188;SDS011;9219;50.396;8.546;2023-08-06T10:00:08;1.47;;;0.80;;
18188;SDS011;9219;50.396;8.546;2023-08-06T10:02:37;0.57;;;0.50;;
18188;SDS011;9219;50.396;8.546;2023-08-06T10:05:07;0.60;;;0.60;;
18188;SDS011;9219;50.396;8.546;2023-08-06T10:07:39;2.43;;;0.77;;
18188;SDS011;9219;50.396;8.546;2023-08-06T10:13:18;0.70;;;0.70;;
18188;SDS011;9219;50.396;8.546;2023-08-06T10:15:49;0.87;;;0.57;;
18188;SDS011;9219;50.396;8.546;2023-08-06T10:18:18;0.70;;;0.60;;
18188;SDS011;9219;50.396;8.546;2023-08-06T10:20:49;2.10;;;0.70;;
18188;SDS011;9219;50.396;8.546;2023-08-06T10:23:20;1.67;;;0.57;;
18188;SDS011;9219;50.396;8.546;2023-08-06T10:26:08;0.47;;;0.43;;
18188;SDS011;9219;50.396;8.546;2023-08-06T10:28:38;1.37;;;0.60;;
18188;SDS011;9219;50.396;8.546;2023-08-06T10:31:07;2.47;;;0.47;;
18188;SDS011;9219;50.396;8.546;2023-08-06T10:34:18;0.30;;;0.30;;
18188;SDS011;9219;50.396;8.546;2023-08-06T10:36:47;1.03;;;0.60;;
18188;SDS011;9219;50.396;8.546;2023-08-06T10:39:16;0.33;;;0.33;;
18188;SDS011;9219;50.396;8.546;2023-08-06T10:41:56;0.50;;;0.50;;
18188;SDS011;9219;50.396;8.546;2023-08-06T10:44:26;0.80;;;0.40;;
18188;SDS011;9219;50.396;8.546;2023-08-06T10:47:06;0.40;;;0.40;;
18188;SDS011;9219;50.396;8.546;2023-08-06T10:49:55;0.53;;;0.40;;
18188;SDS011;9219;50.396;8.546;2023-08-06T10:52:25;0.40;;;0.40;;
18188;SDS011;9219;50.396;8.546;2023-08-06T11:00:22;0.53;;;0.47;;
18188;SDS011;9219;50.396;8.546;2023-08-06T11:02:53;0.37;;;0.37;;
18188;SDS011;9219;50.396;8.546;2023-08-06T11:05:21;0.60;;;0.40;;
18188;SDS011;9219;50.396;8.546;2023-08-06T11:07:49;0.47;;;0.40;;
18188;SDS011;9219;50.396;8.546;2023-08-06T11:10:17;0.50;;;0.50;;
18188;SDS011;9219;50.396;8.546;2023-08-06T11:12:44;0.43;;;0.33;;
18188;SDS011;9219;50.396;8.546;2023-08-06T11:15:12;0.40;;;0.30;;
18188;SDS011;9219;50.396;8.546;2023-08-06T11:22:45;1.00;;;0.50;;
18188;SDS011;9219;50.396;8.546;2023-08-06T11:25:15;0.60;;;0.50;;
18188;SDS011;9219;50.396;8.546;2023-08-06T11:27:42;0.80;;;0.73;;
18188;SDS011;9219;50.396;8.546;2023-08-06T11:30:12;0.50;;;0.50;;
18188;SDS011;9219;50.396;8.546;2023-08-06T11:32:45;0.80;;;0.50;;
18188;SDS011;9219;50.396;8.546;2023-08-06T11:35:14;0.97;;;0.60;;
18188;SDS011;9219;50.396;8.546;2023-08-06T11:37:43;0.50;;;0.50;;
18188;SDS011;9219;50.396;8.546;2023-08-06T11:45:21;3.33;;;0.50;;
18188;SDS011;9219;50.396;8.546;2023-08-06T11:47:49;0.20;;;0.20;;
18188;SDS011;9219;50.396;8.546;2023-08-06T11:50:21;0.67;;;0.37;;
18188;SDS011;9219;50.396;8.546;2023-08-06T11:52:52;0.57;;;0.37;;
18188;SDS011;9219;50.396;8.546;2023-08-06T11:55:22;2.13;;;0.60;;
18188;SDS011;9219;50.396;8.546;2023-08-06T11:57:51;0.93;;;0.50;;
18188;SDS011;9219;50.396;8.546;2023-08-06T12:00:19;3.50;;;0.40;;
18188;SDS011;9219;50.396;8.546;2023-08-06T12:07:56;1.70;;;0.30;;
18188;SDS011;9219;50.396;8.546;2023-08-06T12:10:26;1.90;;;1.27;;
18188;SDS011;9219;50.396;8.546;2023-08-06T12:12:55;0.37;;;0.37;;
18188;SDS011;9219;50.396;8.546;2023-08-06T12:15:29;0.40;;;0.40;;
18188;SDS011;9219;50.396;8.546;2023-08-06T12:17:59;5.27;;;0.70;;
18188;SDS011;9219;50.396;8.546;2023-08-06T12:20:27;1.87;;;0.57;;
18188;SDS011;9219;50.396;8.546;2023-08-06T12:22:56;1.10;;;0.40;;
18188;SDS011;9219;50.396;8.546;2023-08-06T12:28:12;3.70;;;0.50;;
18188;SDS011;9219;50.396;8.546;2023-08-06T12:30:40;0.60;;;0.60;;
18188;SDS011;9219;50.396;8.546;2023-08-06T12:33:10;1.00;;;0.83;;
18188;SDS011;9219;50.396;8.546;2023-08-06T12:35:37;0.60;;;0.60;;
18188;SDS011;9219;50.396;8.546;2023-08-06T12:38:05;2.10;;;0.70;;
18188;SDS011;9219;50.396;8.546;2023-08-06T12:40:32;2.07;;;0.90;;
18188;SDS011;9219;50.396;8.546;2023-08-06T12:43:04;1.47;;;1.27;;
18188;SDS011;9219;50.396;8.546;2023-08-06T12:52:11;0.57;;;0.57;;
18188;SDS011;9219;50.396;8.546;2023-08-06T12:54:41;1.00;;;0.90;;
18188;SDS011;9219;50.396;8.546;2023-08-06T12:57:09;1.33;;;0.70;;
18188;SDS011;9219;50.396;8.546;2023-08-06T12:59:37;1.23;;;0.87;;
18188;SDS011;9219;50.396;8.546;2023-08-06T13:02:05;1.70;;;0.90;;
18188;SDS011;9219;50.396;8.546;2023-08-06T13:04:36;0.80;;;0.80;;
18188;SDS011;9219;50.396;8.546;2023-08-06T13:07:06;1.40;;;0.90;;
18188;SDS011;9219;50.396;8.546;2023-08-06T13:14:40;0.80;;;0.80;;
18188;SDS011;9219;50.396;8.546;2023-08-06T13:17:08;1.40;;;0.90;;
18188;SDS011;9219;50.396;8.546;2023-08-06T13:19:36;5.07;;;1.30;;
18188;SDS011;9219;50.396;8.546;2023-08-06T13:22:05;3.60;;;1.13;;
18188;SDS011;9219;50.396;8.546;2023-08-06T13:24:35;7.70;;;1.30;;
18188;SDS011;9219;50.396;8.546;2023-08-06T13:27:02;1.73;;;1.30;;
18188;SDS011;9219;50.396;8.546;2023-08-06T13:29:30;3.23;;;1.40;;
18188;SDS011;9219;50.396;8.546;2023-08-06T13:37:05;2.03;;;1.30;;
18188;SDS011;9219;50.396;8.546;2023-08-06T13:39:37;1.63;;;1.53;;
18188;SDS011;9219;50.396;8.546;2023-08-06T13:46:06;2.00;;;1.50;;
18188;SDS011;9219;50.396;8.546;2023-08-06T13:48:41;1.30;;;1.20;;
18188;SDS011;9219;50.396;8.546;2023-08-06T13:51:23;5.37;;;1.60;;
18188;SDS011;9219;50.396;8.546;2023-08-06T13:53:57;5.50;;;1.37;;
18188;SDS011;9219;50.396;8.546;2023-08-06T13:56:31;1.30;;;1.20;;
18188;SDS011;9219;50.396;8.546;2023-08-06T14:03:49;3.87;;;1.37;;
18188;SDS011;9219;50.396;8.546;2023-08-06T14:06:18;2.73;;;1.80;;
18188;SDS011;9219;50.396;8.546;2023-08-06T14:08:46;2.30;;;1.90;;
18188;SDS011;9219;50.396;8.546;2023-08-06T14:11:14;1.87;;;1.43;;
18188;SDS011;9219;50.396;8.546;2023-08-06T14:13:47;1.33;;;1.17;;
18188;SDS011;9219;50.396;8.546;2023-08-06T14:16:17;2.10;;;1.00;;
18188;SDS011;9219;50.396;8.546;2023-08-06T14:18:48;1.53;;;1.07;;
18188;SDS011;9219;50.396;8.546;2023-08-06T14:26:28;2.37;;;1.17;;
18188;SDS011;9219;50.396;8.546;2023-08-06T14:28:56;1.60;;;1.00;;
18188;SDS011;9219;50.396;8.546;2023-08-06T14:31:23;1.60;;;1.50;;
18188;SDS011;9219;50.396;8.546;2023-08-06T14:33:51;4.63;;;1.40;;
18188;SDS011;9219;50.396;8.546;2023-08-06T14:36:20;2.37;;;1.00;;
18188;SDS011;9219;50.396;8.546;2023-08-06T14:38:48;1.30;;;1.10;;
18188;SDS011;9219;50.396;8.546;2023-08-06T14:41:26;1.13;;;1.03;;
18188;SDS011;9219;50.396;8.546;2023-08-06T14:46:35;1.97;;;1.00;;
18188;SDS011;9219;50.396;8.546;2023-08-06T14:49:03;1.23;;;0.90;;
18188;SDS011;9219;50.396;8.546;2023-08-06T14:51:33;1.30;;;0.70;;
18188;SDS011;9219;50.396;8.546;2023-08-06T14:54:01;2.30;;;1.47;;
18188;SDS011;9219;50.396;8.546;2023-08-06T14:56:30;2.13;;;1.10;;
18188;SDS011;9219;50.396;8.546;2023-08-06T14:58:57;1.93;;;0.90;;
18188;SDS011;9219;50.396;8.546;2023-08-06T15:01:27;0.97;;;0.80;;
18188;SDS011;9219;50.396;8.546;2023-08-06T15:08:59;0.80;;;0.80;;
18188;SDS011;9219;50.396;8.546;2023-08-06T15:11:41;0.80;;;0.80;;
18188;SDS011;9219;50.396;8.546;2023-08-06T15:14:09;0.77;;;0.70;;
18188;SDS011;9219;50.396;8.546;2023-08-06T15:16:46;0.87;;;0.87;;
18188;SDS011;9219;50.396;8.546;2023-08-06T15:19:26;1.13;;;1.03;;
18188;SDS011;9219;50.396;8.546;2023-08-06T15:21:54;0.70;;;0.70;;
18188;SDS011;9219;50.396;8.546;2023-08-06T15:24:28;3.97;;;1.03;;
18188;SDS011;9219;50.396;8.546;2023-08-06T15:29:46;1.73;;;1.50;;
18188;SDS011;9219;50.396;8.546;2023-08-06T15:32:18;2.23;;;1.97;;
18188;SDS011;9219;50.396;8.546;2023-08-06T15:34:49;2.57;;;2.10;;
18188;SDS011;9219;50.396;8.546;2023-08-06T15:37:17;2.83;;;2.53;;
18188;SDS011;9219;50.396;8.546;2023-08-06T15:39:45;4.57;;;2.37;;
18188;SDS011;9219;50.396;8.546;2023-08-06T15:42:14;2.60;;;2.37;;
18188;SDS011;9219;50.396;8.546;2023-08-06T15:44:43;3.40;;;2.80;;
18188;SDS011;9219;50.396;8.546;2023-08-06T15:47:13;4.03;;;3.47;;
18188;SDS011;9219;50.396;8.546;2023-08-06T15:49:43;3.13;;;2.83;;
18188;SDS011;9219;50.396;8.546;2023-08-06T15:57:25;4.10;;;2.70;;
18188;SDS011;9219;50.396;8.546;2023-08-06T15:59:53;5.50;;;2.30;;
18188;SDS011;9219;50.396;8.546;2023-08-06T16:02:32;5.70;;;2.40;;
18188;SDS011;9219;50.396;8.546;2023-08-06T16:05:06;4.90;;;2.60;;
18188;SDS011;9219;50.396;8.546;2023-08-06T16:07:43;3.03;;;2.43;;
18188;SDS011;9219;50.396;8.546;2023-08-06T16:10:17;6.47;;;2.50;;
18188;SDS011;9219;50.396;8.546;2023-08-06T16:12:59;4.90;;;2.83;;
18188;SDS011;9219;50.396;8.546;2023-08-06T16:15:30;4.53;;;2.13;;
18188;SDS011;9219;50.396;8.546;2023-08-06T16:23:18;2.40;;;1.80;;
18188;SDS011;9219;50.396;8.546;2023-08-06T16:25:46;4.13;;;2.00;;
18188;SDS011;9219;50.396;8.546;2023-08-06T16:28:14;2.67;;;1.97;;
18188;SDS011;9219;50.396;8.546;2023-08-06T16:30:44;4.33;;;2.13;;
18188;SDS011;9219;50.396;8.546;2023-08-06T16:33:15;2.13;;;2.00;;
18188;SDS011;9219;50.396;8.546;2023-08-06T16:35:44;2.97;;;2.10;;
18188;SDS011;9219;50.396;8.546;2023-08-06T16:38:12;3.63;;;2.37;;
18188;SDS011;9219;50.396;8.546;2023-08-06T16:45:48;2.30;;;1.20;;
18188;SDS011;9219;50.396;8.546;2023-08-06T16:48:20;6.10;;;1.63;;
18188;SDS011;9219;50.396;8.546;2023-08-06T16:50:52;2.33;;;1.60;;
18188;SDS011;9219;50.396;8.546;2023-08-06T16:53:21;6.37;;;3.00;;
18188;SDS011;9219;50.396;8.546;2023-08-06T16:55:49;2.27;;;1.80;;
18188;SDS011;9219;50.396;8.546;2023-08-06T16:58:19;5.53;;;1.40;;
18188;SDS011;9219;50.396;8.546;2023-08-06T17:00:51;4.57;;;1.47;;
18188;SDS011;9219;50.396;8.546;2023-08-06T17:03:32;2.20;;;1.37;;
18188;SDS011;9219;50.396;8.546;2023-08-06T17:06:01;1.73;;;1.37;;
18188;SDS011;9219;50.396;8.546;2023-08-06T17:08:30;1.40;;;1.30;;
18188;SDS011;9219;50.396;8.546;2023-08-06T17:11:00;1.17;;;1.07;;
18188;SDS011;9219;50.396;8.546;2023-08-06T17:13:29;1.07;;;1.00;;
18188;SDS011;9219;50.396;8.546;2023-08-06T17:15:58;2.63;;;0.93;;
18188;SDS011;9219;50.396;8.546;2023-08-06T17:18:28;5.20;;;1.00;;
18188;SDS011;9219;50.396;8.546;2023-08-06T17:21:00;5.30;;;1.10;;
18188;SDS011;9219;50.396;8.546;2023-08-06T17:28:30;1.27;;;1.17;;
18188;SDS011;9219;50.396;8.546;2023-08-06T17:30:59;2.13;;;1.50;;
18188;SDS011;9219;50.396;8.546;2023-08-06T17:33:26;2.40;;;1.43;;
18188;SDS011;9219;50.396;8.546;2023-08-06T17:35:54;5.50;;;1.67;;
18188;SDS011;9219;50.396;8.546;2023-08-06T17:38:23;1.90;;;1.47;;
18188;SDS011;9219;50.396;8.546;2023-08-06T17:40:54;3.40;;;1.43;;
18188;SDS011;9219;50.396;8.546;2023-08-06T17:43:24;4.77;;;2.37;;
18188;SDS011;9219;50.396;8.546;2023-08-06T17:51:00;6.40;;;1.80;;
18188;SDS011;9219;50.396;8.546;2023-08-06T17:53:28;1.80;;;1.60;;
18188;SDS011;9219;50.396;8.546;2023-08-06T17:55:57;2.27;;;1.83;;
18188;SDS011;9219;50.396;8.546;2023-08-06T17:58:27;2.33;;;1.90;;
18188;SDS011;9219;50.396;8.546;2023-08-06T18:00:55;3.00;;;1.73;;
18188;SDS011;9219;50.396;8.546;2023-08-06T18:03:23;2.00;;;1.67;;
18188;SDS011;9219;50.396;8.546;2023-08-06T18:05:54;2.87;;;1.80;;
18188;SDS011;9219;50.396;8.546;2023-08-06T18:13:27;1.73;;;1.63;;
18188;SDS011;9219;50.396;8.546;2023-08-06T18:15:55;3.23;;;1.90;;
18188;SDS011;9219;50.396;8.546;2023-08-06T18:18:23;2.53;;;1.63;;
18188;SDS011;9219;50.396;8.546;2023-08-06T18:20:51;1.57;;;1.47;;
18188;SDS011;9219;50.396;8.546;2023-08-06T18:23:19;3.30;;;1.60;;
18188;SDS011;9219;50.396;8.546;2023-08-06T18:25:47;7.20;;;1.77;;
18188;SDS011;9219;50.396;8.546;2023-08-06T18:28:15;2.03;;;1.43;;
18188;SDS011;9219;50.396;8.546;2023-08-06T18:35:49;1.97;;;1.83;;
18188;SDS011;9219;50.396;8.546;2023-08-06T18:38:17;2.23;;;2.03;;
18188;SDS011;9219;50.396;8.546;2023-08-06T18:40:47;2.30;;;2.10;;
18188;SDS011;9219;50.396;8.546;2023-08-06T18:43:16;2.17;;;1.70;;
18188;SDS011;9219;50.396;8.546;2023-08-06T18:45:47;1.90;;;1.80;;
18188;SDS011;9219;50.396;8.546;2023-08-06T18:48:28;2.80;;;2.13;;
18188;SDS011;9219;50.396;8.546;2023-08-06T18:51:02;2.80;;;1.83;;
18188;SDS011;9219;50.396;8.546;2023-08-06T18:58:42;1.93;;;1.17;;
18188;SDS011;9219;50.396;8.546;2023-08-06T19:01:11;2.07;;;1.40;;